Adak Island, Alaska
Current Conditions -  °F | °C
As of 8:36 PM on Thursday 30 Oct 2014 (Local Time) from PADK Reporting Station
Overcast Overcast  
Wind Chill: 33°   Ceiling: 4300
Heat Index: 45°   Visibility: 10mi
Dew Point: 34°   Wind: 45mph
Humidity: 66%   Direction: 270°W
Pressure: 29.2"   Gusts: 54mph
Location:  51.88°N, 176.65°W
Report Text: PADK 310536Z AUTO 27039G47KT 10SM SCT034 BKN043 OVC060 07/01 A2920 RMK AO1
Loading
Personal Weather Stations






























Interactive Weather Map
Tropical Storm Tracking
New forecast layout! Learn more

10-Day Weather Forecast

Advertisements
Track Severe Weather on mobile